createdAt,value
2019-05-23T00:01:05.963Z,97066.50
2019-05-23T00:06:54.890Z,97063.81
2019-05-23T00:09:43.273Z,97071.88
2019-05-23T00:12:35.655Z,97064.30
2019-05-23T00:15:29.153Z,97071.28
2019-05-23T00:18:00.635Z,97068.20
2019-05-23T00:20:32.854Z,97068.20
2019-05-23T00:23:04.551Z,97064.09
2019-05-23T00:25:35.570Z,97062.84
2019-05-23T00:28:09.026Z,97063.70
2019-05-23T00:30:45.286Z,97061.02
2019-05-23T00:33:18.712Z,97062.75
2019-05-23T00:35:49.072Z,97061.89
2019-05-23T00:38:21.375Z,97063.23
2019-05-23T00:40:52.832Z,97062.75
2019-05-23T00:43:24.647Z,97061.89
2019-05-23T00:45:55.584Z,97064.09
2019-05-23T00:48:26.341Z,97062.75
2019-05-23T00:50:57.155Z,97062.25
2019-05-23T00:53:28.530Z,97059.56
2019-05-23T00:55:59.300Z,97063.12
2019-05-23T00:58:30.528Z,97062.75
2019-05-23T01:01:02.565Z,97063.12
2019-05-23T01:03:33.479Z,97058.22
2019-05-23T01:06:04.370Z,97059.09
2019-05-23T01:08:35.335Z,97058.61
2019-05-23T01:11:06.565Z,97057.74
2019-05-23T01:13:37.046Z,97063.12
2019-05-23T01:16:08.344Z,97063.59
2019-05-23T01:18:40.111Z,97059.09
2019-05-23T01:21:36.869Z,97060.31
2019-05-23T01:24:16.744Z,97053.24
2019-05-23T01:26:47.999Z,97053.24
2019-05-23T01:29:19.497Z,97058.61
2019-05-23T01:31:51.837Z,97054.19
2019-05-23T01:34:24.249Z,97060.43
2019-05-23T01:36:55.827Z,97061.18
2019-05-23T01:39:26.493Z,97063.51
2019-05-23T01:41:56.780Z,97061.18
2019-05-23T01:44:27.167Z,97062.05
2019-05-23T01:46:57.608Z,97061.66
2019-05-23T01:49:28.799Z,97063.87
2019-05-23T01:51:59.410Z,97059.84
2019-05-23T01:54:29.774Z,97066.08
2019-05-23T01:56:59.975Z,97066.95
2019-05-23T01:59:30.721Z,97065.60
2019-05-23T02:02:01.083Z,97062.92
2019-05-23T02:04:31.481Z,97064.27
2019-05-23T02:07:03.118Z,97065.60
2019-05-23T02:09:33.812Z,97071.81
2019-05-23T02:12:05.544Z,97065.09
2019-05-23T02:14:36.991Z,97066.95
2019-05-23T02:17:09.050Z,97064.27
2019-05-23T02:19:39.515Z,97058.38
2019-05-23T02:22:10.542Z,97056.68
2019-05-23T02:24:39.953Z,97052.65
2019-05-23T02:27:09.906Z,97056.20
2019-05-23T02:29:39.612Z,97061.45
2019-05-23T02:32:10.578Z,97057.91
2019-05-23T02:34:41.357Z,97058.38
2019-05-23T02:37:20.988Z,97062.80
2019-05-23T02:39:57.423Z,97061.94
2019-05-23T02:42:46.420Z,97058.38
2019-05-23T02:45:19.402Z,97061.06
2019-05-23T02:47:49.903Z,97058.38
2019-05-23T02:50:29.504Z,97067.70
2019-05-23T02:53:01.068Z,97060.83
2019-05-23T02:55:34.498Z,97065.38
2019-05-23T02:58:31.160Z,97070.44
2019-05-23T03:01:19.908Z,97070.91
2019-05-23T03:03:50.476Z,97066.59
2019-05-23T03:06:22.236Z,97064.51
2019-05-23T03:08:52.411Z,97066.83
2019-05-23T03:11:39.355Z,97070.11
2019-05-23T03:14:11.707Z,97070.42
2019-05-23T03:16:43.943Z,97066.50
2019-05-23T03:19:38.528Z,97067.26
2019-05-23T03:22:42.669Z,97071.17
2019-05-23T03:26:01.852Z,97070.70
2019-05-23T03:28:34.848Z,97066.19
2019-05-23T03:31:28.350Z,97069.23
2019-05-23T03:33:42.805Z,97066.19
2019-05-23T03:36:13.164Z,97066.67
2019-05-23T03:38:43.463Z,97070.58
2019-05-23T03:41:14.740Z,97070.11
2019-05-23T03:43:46.624Z,97071.81
2019-05-23T03:46:20.190Z,97069.13
2019-05-23T03:48:51.351Z,97069.13
2019-05-23T03:51:22.132Z,97070.47
2019-05-23T03:53:54.543Z,97065.09
2019-05-23T03:56:25.147Z,97063.75
2019-05-23T03:58:56.879Z,97064.73
2019-05-23T04:01:45.908Z,97065.09
2019-05-23T04:04:03.186Z,97062.41
2019-05-23T04:06:34.198Z,97064.73
2019-05-23T04:09:06.755Z,97062.41
2019-05-23T04:11:38.360Z,97065.69
2019-05-23T04:14:18.976Z,97059.79
2019-05-23T04:17:05.712Z,97054.20
2019-05-23T04:19:36.288Z,97054.40
2019-05-23T04:22:08.325Z,97064.66
2019-05-23T04:24:38.556Z,97062.62
2019-05-23T04:27:08.668Z,97058.00
2019-05-23T04:29:39.221Z,97058.40
2019-05-23T04:32:10.306Z,97056.94
2019-05-23T04:34:40.523Z,97060.86
2019-05-23T04:37:10.741Z,97056.83
2019-05-23T04:39:40.873Z,97059.16
2019-05-23T04:42:11.561Z,97057.05
2019-05-23T04:44:44.298Z,97063.66
2019-05-23T04:47:14.540Z,97070.53
2019-05-23T04:49:45.080Z,97070.53
2019-05-23T04:52:15.229Z,97071.28
2019-05-23T04:54:46.659Z,97073.49
2019-05-23T04:57:17.986Z,97072.52
2019-05-23T04:59:48.368Z,97080.68
2019-05-23T05:02:26.395Z,97084.13
2019-05-23T05:04:52.697Z,97090.72
2019-05-23T05:07:23.176Z,97094.75
2019-05-23T05:09:54.311Z,97096.84
2019-05-23T05:12:24.911Z,97095.50
2019-05-23T05:14:55.465Z,97099.17
2019-05-23T05:17:25.885Z,97095.98
2019-05-23T05:19:56.313Z,97098.58
2019-05-23T05:22:26.693Z,97102.50
2019-05-23T05:24:58.243Z,97106.52
2019-05-23T05:27:28.904Z,97106.52
2019-05-23T05:29:59.234Z,97113.23
2019-05-23T05:32:44.209Z,97111.42
2019-05-23T05:35:01.776Z,97111.78
2019-05-23T05:37:32.276Z,97111.78
2019-05-23T05:40:06.700Z,97110.44
2019-05-23T05:42:38.880Z,97122.24
2019-05-23T05:45:09.124Z,97124.45
2019-05-23T05:47:40.381Z,97120.42
2019-05-23T05:50:11.310Z,97113.23
2019-05-23T05:52:41.463Z,97126.08
2019-05-23T05:55:12.554Z,97124.34
2019-05-23T05:57:43.641Z,97128.77
2019-05-23T06:00:27.950Z,97131.45
2019-05-23T06:03:04.222Z,97131.81
2019-05-23T06:05:48.016Z,97136.23
2019-05-23T06:08:20.177Z,97134.02
2019-05-23T06:10:50.509Z,97139.78
2019-05-23T06:13:20.627Z,97144.29
2019-05-23T06:15:51.910Z,97145.16
2019-05-23T06:18:22.046Z,97141.13
2019-05-23T06:20:52.377Z,97142.95
2019-05-23T06:23:23.154Z,97145.55
2019-05-23T06:25:53.355Z,97146.00
2019-05-23T06:28:23.490Z,97144.20
2019-05-23T06:30:54.423Z,97146.89
2019-05-23T06:33:24.942Z,97148.68
2019-05-23T06:35:55.153Z,97153.13
2019-05-23T06:38:25.917Z,97148.63
2019-05-23T06:40:57.027Z,97151.80
2019-05-23T06:43:27.306Z,97146.42
2019-05-23T06:45:58.380Z,97151.80
2019-05-23T06:48:29.684Z,97150.45
2019-05-23T06:50:59.815Z,97154.48
2019-05-23T06:53:30.213Z,97151.80
2019-05-23T06:56:00.340Z,97156.19
2019-05-23T06:58:30.692Z,97147.66
2019-05-23T07:01:00.963Z,97152.08
2019-05-23T07:03:42.470Z,97148.05
2019-05-23T07:06:03.188Z,97151.56
2019-05-23T07:08:33.309Z,97145.36
2019-05-23T07:11:03.483Z,97156.47
2019-05-23T07:13:34.985Z,97151.56
2019-05-23T07:16:05.432Z,97149.64
2019-05-23T07:18:35.536Z,97155.01
2019-05-23T07:21:06.049Z,97157.70
2019-05-23T07:23:36.225Z,97157.22
2019-05-23T07:26:06.483Z,97159.91
2019-05-23T07:28:37.191Z,97156.74
2019-05-23T07:31:08.023Z,97164.33
2019-05-23T07:33:38.254Z,97154.92
2019-05-23T07:36:08.430Z,97153.95
2019-05-23T07:38:38.632Z,97154.06
2019-05-23T07:41:09.474Z,97157.11
2019-05-23T07:43:39.609Z,97152.60
2019-05-23T07:46:09.901Z,97153.47
2019-05-23T07:48:40.122Z,97155.29
2019-05-23T07:51:10.414Z,97164.58
2019-05-23T07:53:47.927Z,97163.23
2019-05-23T07:56:19.307Z,97153.83
2019-05-23T07:58:49.573Z,97159.59
2019-05-23T08:01:22.097Z,97150.67
2019-05-23T08:03:52.756Z,97156.91
2019-05-23T08:06:23.228Z,97160.47
2019-05-23T08:08:53.976Z,97158.61
2019-05-23T08:11:24.381Z,97159.01
2019-05-23T08:13:55.058Z,97156.80
2019-05-23T08:16:25.905Z,97156.80
2019-05-23T08:18:56.121Z,97155.93
2019-05-23T08:21:26.465Z,97162.64
2019-05-23T08:23:56.632Z,97156.80
2019-05-23T08:26:27.552Z,97159.88
2019-05-23T08:29:24.176Z,97153.16
2019-05-23T08:31:30.231Z,97154.00
2019-05-23T08:34:01.326Z,97163.04
2019-05-23T08:36:31.713Z,97160.83
2019-05-23T08:39:03.717Z,97160.35
2019-05-23T08:41:34.605Z,97159.01
2019-05-23T08:44:05.429Z,97162.05
2019-05-23T08:46:37.191Z,97159.01
2019-05-23T08:49:08.541Z,97158.02
2019-05-23T08:51:39.772Z,97157.19
2019-05-23T08:54:10.225Z,97145.10
2019-05-23T08:56:40.589Z,97148.73
2019-05-23T08:59:10.957Z,97146.92
2019-05-23T09:01:41.211Z,97138.86
2019-05-23T09:04:11.560Z,97149.97
2019-05-23T09:06:42.370Z,97144.59
2019-05-23T09:09:28.411Z,97138.39
2019-05-23T09:11:44.950Z,97145.58
2019-05-23T09:14:15.333Z,97154.98
2019-05-23T09:16:45.748Z,97143.37
2019-05-23T09:19:16.109Z,97146.05
2019-05-23T09:21:46.416Z,97141.55
2019-05-23T09:24:16.803Z,97137.99
2019-05-23T09:26:47.911Z,97145.19
2019-05-23T09:29:18.167Z,97144.82
2019-05-23T09:31:48.694Z,97135.89
2019-05-23T09:34:19.874Z,97135.53
2019-05-23T09:36:50.291Z,97131.50
2019-05-23T09:39:22.265Z,97134.55
2019-05-23T09:41:52.546Z,97140.40
2019-05-23T09:44:22.833Z,97139.92
2019-05-23T09:46:53.087Z,97143.09
2019-05-23T09:49:23.838Z,97141.38
2019-05-23T09:51:58.304Z,97136.88
2019-05-23T09:54:26.328Z,97133.33
2019-05-23T09:56:56.604Z,97131.98
2019-05-23T09:59:27.048Z,97138.22
2019-05-23T10:01:58.230Z,97134.66
2019-05-23T10:04:28.477Z,97128.06
2019-05-23T10:06:58.769Z,97132.93
2019-05-23T10:09:29.087Z,97137.35
2019-05-23T10:11:59.489Z,97132.45
2019-05-23T10:14:32.821Z,97140.98
2019-05-23T10:17:03.104Z,97130.24
2019-05-23T10:19:33.475Z,97136.59
2019-05-23T10:22:04.697Z,97136.59
2019-05-23T10:24:34.891Z,97137.94
2019-05-23T10:27:07.068Z,97127.20
2019-05-23T10:29:37.454Z,97135.25
2019-05-23T10:32:09.434Z,97134.39
2019-05-23T10:34:39.807Z,97128.14
2019-05-23T10:37:12.387Z,97131.42
2019-05-23T10:39:44.701Z,97125.69
2019-05-23T10:42:15.049Z,97122.14
2019-05-23T10:44:45.236Z,97131.06
2019-05-23T10:47:15.572Z,97124.46
2019-05-23T10:49:45.888Z,97123.48
2019-05-23T10:52:16.288Z,97120.04
2019-05-23T10:54:46.572Z,97120.48
2019-05-23T10:57:16.860Z,97119.14
2019-05-23T10:59:47.195Z,97123.59
2019-05-23T11:02:18.752Z,97111.59
2019-05-23T11:04:49.140Z,97116.09
2019-05-23T11:07:19.715Z,97111.08
2019-05-23T11:09:50.107Z,97112.42
2019-05-23T11:12:20.813Z,97112.42
2019-05-23T11:14:52.196Z,97107.55
2019-05-23T11:17:22.456Z,97104.95
2019-05-23T11:19:52.725Z,97106.80
2019-05-23T11:22:23.028Z,97104.48
2019-05-23T11:24:54.102Z,97101.44
2019-05-23T11:27:24.404Z,97099.22
2019-05-23T11:29:54.571Z,97098.23
2019-05-23T11:32:26.115Z,97100.09
2019-05-23T11:34:56.372Z,97093.38
2019-05-23T11:37:26.740Z,97100.56
2019-05-23T11:39:57.092Z,97093.45
2019-05-23T11:42:27.416Z,97088.95
2019-05-23T11:44:57.816Z,97086.27
2019-05-23T11:47:31.851Z,97086.27
2019-05-23T11:50:00.359Z,97085.40
2019-05-23T11:52:30.940Z,97084.05
2019-05-23T11:55:01.296Z,97086.27
2019-05-23T11:57:37.268Z,97079.55
2019-05-23T12:00:07.173Z,97076.98
2019-05-23T12:02:40.671Z,97074.30
2019-05-23T12:05:15.254Z,97076.87
2019-05-23T12:07:45.649Z,97067.94
2019-05-23T12:10:16.513Z,97059.05
2019-05-23T12:12:46.798Z,97058.06
2019-05-23T12:15:22.376Z,97055.86
2019-05-23T12:17:53.461Z,97054.52
2019-05-23T12:20:23.789Z,97041.09
2019-05-23T12:22:54.104Z,97037.92
2019-05-23T12:25:24.357Z,97038.80
2019-05-23T12:27:52.977Z,97029.39
2019-05-23T12:30:23.512Z,97033.30
2019-05-23T12:32:53.676Z,97029.75
2019-05-23T12:35:23.890Z,97022.69
2019-05-23T12:37:54.207Z,97021.81
2019-05-23T12:40:24.496Z,97015.09
2019-05-23T12:42:54.642Z,97016.33
2019-05-23T12:45:25.017Z,97010.12
2019-05-23T12:48:02.975Z,97015.84
2019-05-23T12:50:38.624Z,97009.14
2019-05-23T12:53:10.103Z,97001.47
2019-05-23T12:55:40.513Z,96993.02
2019-05-23T12:58:10.985Z,96996.10
2019-05-23T13:00:53.880Z,96993.80
2019-05-23T13:03:24.330Z,96992.34
2019-05-23T13:05:54.661Z,96991.87
2019-05-23T13:08:25.005Z,96990.05
2019-05-23T13:10:55.240Z,96983.70
2019-05-23T13:13:25.826Z,96983.22
2019-05-23T13:15:56.026Z,96977.38
2019-05-23T13:18:26.428Z,96982.75
2019-05-23T13:20:59.569Z,96981.28
2019-05-23T13:23:29.208Z,96975.05
2019-05-23T13:25:59.488Z,96973.34
2019-05-23T13:28:29.862Z,96979.07
2019-05-23T13:31:00.388Z,96983.61
2019-05-23T13:33:30.570Z,96977.38
2019-05-23T13:36:00.997Z,96978.32
2019-05-23T13:38:31.298Z,96979.66
2019-05-23T13:41:01.612Z,96980.17
2019-05-23T13:43:31.846Z,96980.53
2019-05-23T13:46:02.132Z,96976.63
2019-05-23T13:48:32.395Z,96975.28
2019-05-23T13:51:02.712Z,96972.59
2019-05-23T13:53:33.511Z,96968.92
2019-05-23T13:56:03.976Z,96964.06
2019-05-23T13:58:34.341Z,96973.23
2019-05-23T14:01:09.323Z,96977.64
2019-05-23T14:03:38.315Z,96973.11
2019-05-23T14:06:08.794Z,96976.30
2019-05-23T14:08:39.168Z,96981.28
2019-05-23T14:11:09.970Z,96983.84
2019-05-23T14:13:40.609Z,96985.70
2019-05-23T14:16:11.486Z,96986.66
2019-05-23T14:18:41.888Z,96985.79
2019-05-23T14:21:12.240Z,96985.43
2019-05-23T14:23:42.615Z,96983.49
2019-05-23T14:26:13.694Z,96980.92
2019-05-23T14:28:44.276Z,96985.79
2019-05-23T14:31:16.220Z,96982.27
2019-05-23T14:33:59.384Z,96978.72
2019-05-23T14:36:51.227Z,96981.76
2019-05-23T14:39:55.463Z,96982.27
2019-05-23T14:43:02.936Z,96979.19
2019-05-23T14:45:52.123Z,96978.72
2019-05-23T14:48:41.329Z,96979.19
2019-05-23T14:51:36.578Z,96979.66
2019-05-23T14:54:12.825Z,96978.32
2019-05-23T14:56:43.087Z,96981.01
2019-05-23T14:59:13.459Z,96978.32
2019-05-23T15:01:44.016Z,96980.05
2019-05-23T15:04:14.641Z,96973.34
2019-05-23T15:06:45.442Z,96978.83
2019-05-23T15:09:15.632Z,96978.56
2019-05-23T15:11:46.233Z,96977.77
2019-05-23T15:14:16.458Z,96986.78
2019-05-23T15:16:46.703Z,96992.66
2019-05-23T15:19:36.443Z,96990.18
2019-05-23T15:21:49.053Z,96991.16
2019-05-23T15:24:19.492Z,96988.84
2019-05-23T15:26:49.736Z,96986.16
2019-05-23T15:29:20.613Z,96985.80
2019-05-23T15:32:01.828Z,96983.11
2019-05-23T15:34:23.518Z,96986.62
2019-05-23T15:36:53.768Z,96986.27
2019-05-23T15:39:24.056Z,96986.27
2019-05-23T15:41:54.243Z,96990.30
2019-05-23T15:44:28.642Z,96994.33
2019-05-23T15:46:56.536Z,96997.37
2019-05-23T15:49:27.388Z,96991.25
2019-05-23T15:52:04.431Z,96997.96
2019-05-23T15:54:46.101Z,96992.70
2019-05-23T15:57:21.320Z,96996.85
2019-05-23T16:00:10.465Z,96999.89
2019-05-23T16:02:47.415Z,96991.95
2019-05-23T16:05:17.810Z,96992.55
2019-05-23T16:07:48.090Z,96990.73
2019-05-23T16:10:18.308Z,96994.28
2019-05-23T16:12:48.883Z,96996.97
2019-05-23T16:15:19.116Z,96990.73
2019-05-23T16:17:49.395Z,96999.26
2019-05-23T16:20:19.584Z,97002.34
2019-05-23T16:22:49.973Z,97005.61
2019-05-23T16:25:20.241Z,97013.67
2019-05-23T16:27:51.405Z,97007.55
2019-05-23T16:30:21.659Z,97006.68
2019-05-23T16:32:51.893Z,97007.04
2019-05-23T16:35:22.781Z,97007.63
2019-05-23T16:37:53.054Z,97004.86
2019-05-23T16:40:23.308Z,97000.45
2019-05-23T16:42:53.635Z,97005.81
2019-05-23T16:45:23.891Z,97013.00
2019-05-23T16:47:54.196Z,97009.48
2019-05-23T16:50:24.473Z,97008.61
2019-05-23T16:52:54.798Z,97012.16
2019-05-23T16:55:32.561Z,97015.69
2019-05-23T16:58:08.748Z,97015.80
2019-05-23T17:01:00.923Z,97010.43
2019-05-23T17:03:59.391Z,97013.59
2019-05-23T17:06:51.278Z,97022.16
2019-05-23T17:09:40.305Z,97017.38
2019-05-23T17:12:25.490Z,97021.48
2019-05-23T17:15:11.080Z,97025.03
2019-05-23T17:18:03.600Z,97021.48
2019-05-23T17:20:55.063Z,97021.48
2019-05-23T17:23:56.323Z,97025.51
2019-05-23T17:26:44.446Z,97031.75
2019-05-23T17:29:20.840Z,97037.70
2019-05-23T17:31:52.329Z,97035.89
2019-05-23T17:34:22.623Z,97039.91
2019-05-23T17:36:52.921Z,97039.52
2019-05-23T17:39:24.152Z,97044.42
2019-05-23T17:41:54.495Z,97043.55
2019-05-23T17:44:24.857Z,97051.13
2019-05-23T17:46:55.323Z,97046.73
2019-05-23T17:49:25.652Z,97054.28
2019-05-23T17:51:55.937Z,97052.11
2019-05-23T17:54:26.828Z,97051.72
2019-05-23T17:56:57.426Z,97045.48
2019-05-23T17:59:27.801Z,97057.31
2019-05-23T18:01:58.356Z,97058.85
2019-05-23T18:04:28.843Z,97066.15
2019-05-23T18:06:59.327Z,97052.84
2019-05-23T18:09:30.892Z,97056.98
2019-05-23T18:12:01.671Z,97058.41
2019-05-23T18:14:31.922Z,97062.54
2019-05-23T18:17:02.901Z,97065.34
2019-05-23T18:19:34.034Z,97065.92
2019-05-23T18:22:06.045Z,97068.21
2019-05-23T18:24:36.913Z,97066.87
2019-05-23T18:27:09.115Z,97075.91
2019-05-23T18:29:39.479Z,97078.70
2019-05-23T18:32:13.957Z,97079.28
2019-05-23T18:34:44.583Z,97086.94
2019-05-23T18:37:15.389Z,97088.39
2019-05-23T18:39:45.672Z,97087.41
2019-05-23T18:42:16.747Z,97092.12
2019-05-23T18:44:47.531Z,97094.58
2019-05-23T18:47:26.871Z,97098.88
2019-05-23T18:49:58.508Z,97096.95
2019-05-23T18:52:28.822Z,97100.00
2019-05-23T18:54:59.126Z,97104.90
2019-05-23T18:57:29.640Z,97113.42
2019-05-23T19:00:02.541Z,97111.13
2019-05-23T19:02:33.127Z,97110.16
2019-05-23T19:05:03.981Z,97112.25
2019-05-23T19:07:34.579Z,97113.99
2019-05-23T19:10:05.251Z,97118.49
2019-05-23T19:12:35.604Z,97122.05
2019-05-23T19:15:06.143Z,97123.38
2019-05-23T19:17:37.170Z,97132.67
2019-05-23T19:20:07.626Z,97131.33
2019-05-23T19:22:39.072Z,97138.43
2019-05-23T19:25:10.355Z,97140.25
2019-05-23T19:27:40.992Z,97142.53
2019-05-23T19:30:11.850Z,97141.70
2019-05-23T19:32:42.195Z,97145.22
2019-05-23T19:35:12.976Z,97142.17
2019-05-23T19:37:43.432Z,97149.75
2019-05-23T19:40:15.533Z,97148.89
2019-05-23T19:42:45.893Z,97154.25
2019-05-23T19:45:16.121Z,97149.47
2019-05-23T19:47:46.447Z,97150.05
2019-05-23T19:50:16.745Z,97151.11
2019-05-23T19:52:47.089Z,97148.42
2019-05-23T19:55:19.738Z,97152.09
2019-05-23T19:57:50.316Z,97149.98
2019-05-23T20:00:22.990Z,97158.45
2019-05-23T20:02:54.610Z,97157.58
2019-05-23T20:05:31.582Z,97161.21
2019-05-23T20:08:01.872Z,97154.14
2019-05-23T20:10:32.353Z,97159.98
2019-05-23T20:13:02.702Z,97162.08
2019-05-23T20:15:33.170Z,97165.23
2019-05-23T20:18:03.397Z,97170.42
2019-05-23T20:20:35.174Z,97164.94
2019-05-23T20:23:05.667Z,97169.36
2019-05-23T20:25:36.435Z,97168.78
2019-05-23T20:28:09.356Z,97170.95
2019-05-23T20:30:57.263Z,97165.11
2019-05-23T20:33:27.573Z,97166.74
2019-05-23T20:35:57.880Z,97163.59
2019-05-23T20:38:28.265Z,97164.81
2019-05-23T20:40:58.641Z,97164.23
2019-05-23T20:43:29.021Z,97172.65
2019-05-23T20:45:59.190Z,97173.52
2019-05-23T20:48:29.847Z,97172.57
2019-05-23T20:51:00.152Z,97176.09
2019-05-23T20:53:30.684Z,97180.63
2019-05-23T20:56:01.041Z,97177.94
2019-05-23T20:58:31.254Z,97176.96
2019-05-23T21:01:21.275Z,97177.44
2019-05-23T21:03:52.805Z,97179.64
2019-05-23T21:06:23.062Z,97172.57
2019-05-23T21:08:53.233Z,97173.41
2019-05-23T21:11:23.493Z,97176.96
2019-05-23T21:13:53.786Z,97171.59
2019-05-23T21:16:24.120Z,97173.33
2019-05-23T21:18:54.355Z,97172.45
2019-05-23T21:21:24.625Z,97175.62
2019-05-23T21:23:56.955Z,97176.96
2019-05-23T21:26:26.739Z,97175.73
2019-05-23T21:28:56.864Z,97176.20
2019-05-23T21:31:28.169Z,97175.33
2019-05-23T21:33:58.357Z,97176.31
2019-05-23T21:36:28.638Z,97179.11
2019-05-23T21:38:58.856Z,97182.16
2019-05-23T21:41:29.009Z,97183.21
2019-05-23T21:43:59.301Z,97185.53
2019-05-23T21:46:30.613Z,97181.98
2019-05-23T21:49:00.791Z,97176.72
2019-05-23T21:51:30.965Z,97181.69
2019-05-23T21:54:03.120Z,97182.20
2019-05-23T21:56:33.030Z,97178.53
2019-05-23T21:59:03.220Z,97177.41
2019-05-23T22:01:50.880Z,97185.94
2019-05-23T22:04:23.793Z,97186.80
2019-05-23T22:07:07.084Z,97186.80
2019-05-23T22:09:37.238Z,97191.30
2019-05-23T22:12:09.253Z,97189.48
2019-05-23T22:14:39.416Z,97184.12
2019-05-23T22:17:09.653Z,97181.44
2019-05-23T22:19:39.988Z,97180.94
2019-05-23T22:22:10.118Z,97187.64
2019-05-23T22:24:41.662Z,97188.15
2019-05-23T22:27:11.802Z,97187.64
2019-05-23T22:29:41.931Z,97188.03
2019-05-23T22:32:13.715Z,97183.25
2019-05-23T22:35:06.740Z,97180.94
2019-05-23T22:37:36.900Z,97178.75
2019-05-23T22:40:08.085Z,97181.05
2019-05-23T22:42:38.282Z,97177.88
2019-05-23T22:45:12.823Z,97179.70
2019-05-23T22:47:43.022Z,97177.48
2019-05-23T22:50:15.506Z,97179.23
2019-05-23T22:52:45.660Z,97180.68
2019-05-23T22:55:15.803Z,97177.99
2019-05-23T22:57:49.028Z,97180.17
2019-05-23T23:00:26.100Z,97177.48
2019-05-23T23:02:56.338Z,97177.12
2019-05-23T23:05:26.488Z,97165.92
2019-05-23T23:07:56.906Z,97166.00
2019-05-23T23:10:27.192Z,97162.84
2019-05-23T23:12:57.347Z,97174.44
2019-05-23T23:15:28.448Z,97160.16
2019-05-23T23:17:58.609Z,97164.18
2019-05-23T23:20:28.965Z,97157.58
2019-05-23T23:22:59.180Z,97166.86
2019-05-23T23:25:29.321Z,97162.95
2019-05-23T23:27:59.462Z,97163.81
2019-05-23T23:30:32.685Z,97160.27
2019-05-23T23:33:03.136Z,97168.31
2019-05-23T23:35:33.507Z,97162.08
2019-05-23T23:38:03.664Z,97171.47
2019-05-23T23:40:34.063Z,97166.58
2019-05-23T23:43:04.330Z,97165.74
2019-05-23T23:45:52.062Z,97167.55
2019-05-23T23:48:40.043Z,97169.77
2019-05-23T23:51:27.594Z,97164.88
2019-05-23T23:54:15.129Z,97167.55
2019-05-23T23:57:02.601Z,97164.00
2019-05-23T23:59:31.744Z,97160.84
